createdAt,value
2023-05-07T00:00:32.123Z,74300.13
2023-05-07T00:05:33.662Z,74304.69
2023-05-07T00:10:35.192Z,74309.28
2023-05-07T00:15:36.678Z,74310.78
2023-05-07T00:20:38.173Z,74312.31
2023-05-07T00:25:39.665Z,74319.94
2023-05-07T00:30:41.188Z,74306.22
2023-05-07T00:35:44.387Z,74316.91
2023-05-07T00:40:46.353Z,74330.63
2023-05-07T00:45:48.230Z,74338.25
2023-05-07T00:50:49.826Z,74338.25
2023-05-07T00:55:51.625Z,74338.25
2023-05-07T01:00:53.216Z,74329.09
2023-05-07T01:05:56.773Z,74347.41
2023-05-07T01:10:59.771Z,74344.38
2023-05-07T01:16:06.094Z,74368.78
2023-05-07T01:21:11.832Z,74374.88
2023-05-07T01:26:13.457Z,74370.31
2023-05-07T01:31:17.884Z,74365.72
2023-05-07T01:36:21.988Z,74362.69
2023-05-07T01:41:23.533Z,74356.56
2023-05-07T01:46:27.131Z,74356.56
2023-05-07T01:51:28.681Z,74368.78
2023-05-07T01:56:31.405Z,74388.63
2023-05-07T02:01:33.353Z,74394.72
2023-05-07T02:06:34.948Z,74405.41
2023-05-07T02:11:39.938Z,74411.50
2023-05-07T02:16:41.549Z,74414.56
2023-05-07T02:21:45.687Z,74435.91
2023-05-07T02:26:47.239Z,74446.59
2023-05-07T02:31:53.889Z,74448.13
2023-05-07T02:36:56.603Z,74455.75
2023-05-07T02:42:01.049Z,74467.97
2023-05-07T02:47:02.662Z,74472.53
2023-05-07T02:52:04.755Z,74475.59
2023-05-07T02:57:06.370Z,74481.69
2023-05-07T03:02:07.969Z,74478.66
2023-05-07T03:07:09.553Z,74477.13
2023-05-07T03:12:11.125Z,74477.13
2023-05-07T03:17:12.875Z,74475.59
2023-05-07T03:22:14.907Z,74467.97
2023-05-07T03:27:16.740Z,74464.91
2023-05-07T03:32:18.845Z,74469.50
2023-05-07T03:37:20.858Z,74467.97
2023-05-07T03:42:22.418Z,74472.53
2023-05-07T03:47:26.664Z,74471.00
2023-05-07T03:52:28.402Z,74483.22
2023-05-07T03:57:33.098Z,74477.13
2023-05-07T04:02:35.244Z,74475.59
2023-05-07T04:07:38.215Z,74477.13
2023-05-07T04:12:39.905Z,74472.53
2023-05-07T04:17:43.326Z,74484.75
2023-05-07T04:22:46.218Z,74487.81
2023-05-07T04:27:48.365Z,74481.69
2023-05-07T04:32:51.419Z,74478.66
2023-05-07T04:37:53.197Z,74477.13
2023-05-07T04:42:54.822Z,74467.97
2023-05-07T04:47:57.182Z,74475.59
2023-05-07T04:52:59.027Z,74478.66
2023-05-07T04:58:02.466Z,74483.22
2023-05-07T05:03:07.882Z,74474.06
2023-05-07T05:08:10.056Z,74478.66
2023-05-07T05:13:14.493Z,74481.69
2023-05-07T05:18:17.211Z,74481.69
2023-05-07T05:23:18.765Z,74478.66
2023-05-07T05:28:20.466Z,74475.59
2023-05-07T05:33:22.191Z,74478.66
2023-05-07T05:57:11.363Z,74486.28
2023-05-07T06:02:13.628Z,74481.69
2023-05-07T06:07:16.343Z,74471.00
2023-05-07T06:12:18.075Z,74467.97
2023-05-07T06:17:21.594Z,74469.50
2023-05-07T06:22:25.429Z,74466.44
2023-05-07T06:27:27.072Z,74463.38
2023-05-07T06:32:29.184Z,74469.50
2023-05-07T06:37:31.052Z,74460.34
2023-05-07T06:42:38.943Z,74455.75
2023-05-07T06:48:03.641Z,74438.97
2023-05-07T06:53:09.351Z,74442.03
2023-05-07T06:58:10.996Z,74445.06
2023-05-07T07:03:13.403Z,74454.22
2023-05-07T07:08:18.023Z,74457.28
2023-05-07T07:13:20.586Z,74457.28
2023-05-07T07:18:22.569Z,74463.38
2023-05-07T07:23:25.955Z,74454.22
2023-05-07T07:28:27.722Z,74475.59
2023-05-07T07:33:29.586Z,74451.19
2023-05-07T07:38:32.182Z,74448.13
2023-05-07T07:43:33.837Z,74437.44
2023-05-07T07:48:35.736Z,74435.91
2023-05-07T07:53:37.274Z,74426.75
2023-05-07T07:58:40.125Z,74425.25
2023-05-07T08:03:41.961Z,74435.91
2023-05-07T08:08:44.041Z,74428.28
2023-05-07T08:13:46.774Z,74429.81
2023-05-07T08:18:48.335Z,74432.88
2023-05-07T08:23:50.239Z,74429.81
2023-05-07T08:28:52.340Z,74405.41
2023-05-07T08:33:53.952Z,74390.16
2023-05-07T08:38:55.877Z,74394.72
2023-05-07T08:43:59.889Z,74394.72
2023-05-07T08:49:01.991Z,74387.09
2023-05-07T08:54:04.020Z,74365.72
2023-05-07T08:59:08.776Z,74347.41
2023-05-07T09:04:10.828Z,74329.09
2023-05-07T09:09:18.350Z,74310.78
2023-05-07T09:14:22.804Z,74307.75
2023-05-07T09:19:25.997Z,74286.38
2023-05-07T09:24:35.869Z,74274.19
2023-05-07T09:29:39.142Z,74252.81
2023-05-07T09:34:43.055Z,74232.97
2023-05-07T09:39:47.404Z,74223.81
2023-05-07T09:44:51.773Z,74191.78
2023-05-07T09:49:58.901Z,74175.00
2023-05-07T09:55:01.635Z,74164.31
2023-05-07T10:00:06.327Z,74203.97
2023-05-07T10:05:26.135Z,74181.09
2023-05-07T10:10:33.492Z,74158.22
2023-05-07T10:15:35.892Z,74146.00
2023-05-07T10:20:40.145Z,74139.91
2023-05-07T10:25:44.393Z,74124.63
2023-05-07T10:31:24.477Z,74123.13
2023-05-07T10:36:27.349Z,74069.72
2023-05-07T10:41:29.230Z,74034.63
2023-05-07T10:46:34.204Z,74014.78
2023-05-07T10:51:42.820Z,74017.81
2023-05-07T10:56:56.445Z,73985.78
2023-05-07T11:02:05.186Z,73894.22
2023-05-07T11:07:29.259Z,73807.25
2023-05-07T11:12:39.466Z,73871.34
2023-05-07T11:18:00.613Z,73857.59
2023-05-07T11:23:07.753Z,73897.28
2023-05-07T11:28:14.919Z,73950.69
2023-05-07T11:33:24.052Z,73946.09
2023-05-07T11:38:28.654Z,73941.53
2023-05-07T11:43:30.285Z,73926.28
2023-05-07T11:48:32.705Z,73912.53
2023-05-07T11:53:39.217Z,73903.38
2023-05-07T11:58:42.351Z,73901.84
2023-05-07T12:03:46.908Z,73880.50
2023-05-07T12:08:48.770Z,73891.19
2023-05-07T12:13:51.549Z,73911.00
2023-05-07T12:18:55.853Z,73924.75
2023-05-07T12:23:57.555Z,73917.13
2023-05-07T12:28:59.271Z,73932.38
2023-05-07T12:34:00.972Z,73970.53
2023-05-07T12:39:02.745Z,73998.00
2023-05-07T12:44:06.016Z,73984.25
2023-05-07T12:49:07.531Z,73950.69
2023-05-07T12:54:09.047Z,73953.75
2023-05-07T12:59:10.778Z,73901.84
2023-05-07T13:04:12.390Z,73868.28
2023-05-07T13:09:13.886Z,73866.75
2023-05-07T13:14:15.976Z,73866.75
2023-05-07T13:19:18.381Z,73857.59
2023-05-07T13:24:20.032Z,73761.47
2023-05-07T13:29:26.403Z,73708.06
2023-05-07T13:34:29.076Z,73688.22
2023-05-07T13:39:30.829Z,73717.22
2023-05-07T13:44:32.335Z,73758.44
2023-05-07T13:49:33.835Z,73795.03
2023-05-07T13:54:35.319Z,73735.53
2023-05-07T13:59:36.774Z,73738.59
2023-05-07T14:04:38.799Z,73685.19
2023-05-07T14:09:40.461Z,73749.28
2023-05-07T14:14:41.988Z,73694.34
2023-05-07T14:19:43.892Z,73700.44
2023-05-07T14:24:46.867Z,73727.91
2023-05-07T14:29:52.166Z,73721.81
2023-05-07T14:34:53.791Z,73717.22
2023-05-07T14:39:55.333Z,73714.19
2023-05-07T14:44:56.868Z,73691.28
2023-05-07T14:49:59.296Z,73715.69
2023-05-07T14:55:01.176Z,73734.00
2023-05-07T15:00:05.644Z,73706.53
2023-05-07T15:05:07.532Z,73700.44
2023-05-07T15:10:09.443Z,73697.38
2023-05-07T15:15:11.578Z,73734.00
2023-05-07T15:20:13.352Z,73692.81
2023-05-07T15:25:15.207Z,73706.53
2023-05-07T15:30:17.055Z,73735.53
2023-05-07T15:35:22.619Z,73727.91
2023-05-07T15:40:24.293Z,73727.91
2023-05-07T15:45:25.984Z,73744.69
2023-05-07T15:50:27.634Z,73756.91
2023-05-07T15:55:29.171Z,73750.78
2023-05-07T16:00:30.763Z,73767.59
2023-05-07T16:05:32.238Z,73767.59
2023-05-07T16:10:33.716Z,73700.44
2023-05-07T16:15:35.880Z,73657.72
2023-05-07T16:20:37.772Z,73738.59
2023-05-07T16:25:39.316Z,73759.94
2023-05-07T16:30:40.857Z,73810.31
2023-05-07T16:35:43.926Z,73842.34
2023-05-07T16:40:45.574Z,73866.75
2023-05-07T16:45:47.080Z,73868.28
2023-05-07T16:50:48.707Z,73859.13
2023-05-07T16:55:50.358Z,73891.19
2023-05-07T17:00:51.858Z,73903.38
2023-05-07T17:05:53.406Z,73892.69
2023-05-07T17:10:55.033Z,73831.66
2023-05-07T17:15:56.637Z,73822.50
2023-05-07T17:20:58.137Z,73848.44
2023-05-07T17:25:59.623Z,73904.91
2023-05-07T17:31:01.399Z,73927.81
2023-05-07T17:36:03.206Z,73941.53
2023-05-07T17:41:04.762Z,73944.59
2023-05-07T17:46:08.646Z,73956.78
2023-05-07T17:51:10.220Z,73965.94
2023-05-07T17:56:12.030Z,73988.84
2023-05-07T18:01:14.030Z,74002.56
2023-05-07T18:06:18.895Z,74020.88
2023-05-07T18:11:21.832Z,74033.09
2023-05-07T18:16:23.397Z,74043.75
2023-05-07T18:21:25.037Z,74057.50
2023-05-07T18:26:26.574Z,74072.75
2023-05-07T18:31:28.079Z,74081.91
2023-05-07T18:36:29.617Z,74084.97
2023-05-07T18:41:31.342Z,74101.75
2023-05-07T18:46:33.042Z,74115.47
2023-05-07T18:51:34.585Z,74130.75
2023-05-07T18:56:36.061Z,74136.84
2023-05-07T19:01:37.599Z,74144.47
2023-05-07T19:06:39.238Z,74152.09
2023-05-07T19:11:40.723Z,74162.78
2023-05-07T19:16:42.321Z,74170.41
2023-05-07T19:21:43.841Z,74170.41
2023-05-07T19:26:45.406Z,74176.53
2023-05-07T19:31:46.980Z,74197.88
2023-05-07T19:36:48.535Z,74203.97
2023-05-07T19:41:50.557Z,74220.78
2023-05-07T19:46:52.677Z,74236.03
2023-05-07T19:51:54.387Z,74240.59
2023-05-07T19:56:56.636Z,74249.75
2023-05-07T20:01:58.245Z,74255.88
2023-05-07T20:07:00.036Z,74263.50
2023-05-07T20:12:01.787Z,74275.69
2023-05-07T20:17:03.253Z,74280.28
2023-05-07T20:22:04.790Z,74277.22
2023-05-07T20:27:06.454Z,74292.50
2023-05-07T20:32:08.019Z,74298.59
2023-05-07T20:37:14.095Z,74309.28
2023-05-07T20:42:15.697Z,74319.94
2023-05-07T20:47:17.479Z,74323.00
2023-05-07T20:52:19.404Z,74332.16
2023-05-07T20:57:20.916Z,74335.22
2023-05-07T21:02:22.419Z,74344.38
2023-05-07T21:07:24.011Z,74356.56
2023-05-07T21:12:25.717Z,74370.31
2023-05-07T21:17:28.921Z,74385.56
2023-05-07T21:22:30.657Z,74391.66
2023-05-07T21:27:32.282Z,74402.34
2023-05-07T21:32:34.158Z,74408.44
2023-05-07T21:37:35.701Z,74420.66
2023-05-07T21:42:37.213Z,74420.66
2023-05-07T21:47:38.832Z,74428.28
2023-05-07T21:52:40.300Z,74432.88
2023-05-07T21:57:47.981Z,74442.03
2023-05-07T22:02:56.073Z,74448.13
2023-05-07T22:07:57.694Z,74451.19
2023-05-07T22:12:59.221Z,74451.19
2023-05-07T22:18:00.926Z,74457.28
2023-05-07T22:23:02.399Z,74464.91
2023-05-07T22:28:04.056Z,74471.00
2023-05-07T22:33:06.186Z,74481.69
2023-05-07T22:38:07.757Z,74490.84
2023-05-07T22:43:09.335Z,74495.44
2023-05-07T22:48:10.959Z,74506.09
2023-05-07T22:53:12.494Z,74513.75
2023-05-07T22:58:14.153Z,59042.03
2023-05-07T23:03:15.815Z,59042.03
2023-05-07T23:08:17.471Z,59042.03
2023-05-07T23:13:19.046Z,59042.03
2023-05-07T23:18:20.640Z,59042.03
2023-05-07T23:23:22.180Z,59042.03
2023-05-07T23:28:23.855Z,59042.03
2023-05-07T23:33:25.461Z,59042.03
2023-05-07T23:38:27.218Z,59042.03
2023-05-07T23:43:29.406Z,59042.03
2023-05-07T23:48:31.271Z,59042.03
2023-05-07T23:53:32.764Z,59042.03
2023-05-07T23:58:34.253Z,59042.03
